Grovetown, GA (30813)

1:50 PM EST on December 22, 2014 (GMT -0500)
Indian Springs | Change Station
CLOSE
Current Station
Personal Weather Station
Location: Grovetown, GA
Elevation: 302 ft
Nearby Weather Stations

Elev 302 ft 33.47 °N, 82.22 °W | Updated 5 minutes ago

Overcast
Overcast
46.6 °F
Feels Like 47 °F
N
0.0
Wind Variable Wind from NNW
Gusts 0.0 mph

Today
High -- | Low -- °F
--% Chance of Precip.
Yesterday
High -- | Low -- °F
Precip. -- in
7:29 AM 5:25 PM
New Moon, 1% visible
Pressure 29.97 in
Visibility 10.0 miles
Clouds Mostly Cloudy 600 ft
Overcast 2900 ft
Windchill 47 °F
Dew Point 46 °F
Humidity 99%
Rainfall 0.27 in
Snow Depth Not available.
UV 1 out of 12
Pollen .80 out of 12
Air Quality Not available.
Flu Activity Not available.
SPECI KDNL 221828Z AUTO 06010KT 10SM -RA BKN006 OVC029 08/08 A2997 RMK AO2 PRESFR P0006 T00830078

More Conditions Fewer Conditions

Pressure 29.97 in
Visibility 10.0 miles
Clouds Mostly Cloudy 600 ft
Overcast 2900 ft
Windchill 47 °F
Dew Point 46 °F
Humidity 99%
Rainfall 0.27 in
Snow Depth Not available.
UV 1 out of 12
Pollen .80 out of 12
Air Quality Not available.
Flu Activity Not available.
SPECI KDNL 221828Z AUTO 06010KT 10SM -RA BKN006 OVC029 08/08 A2997 RMK AO2 PRESFR P0006 T00830078

More Conditions Fewer Conditions

10-Day Weather Forecast

Almanac

Astronomy

Dec. 22, 2014 Rise Set
Actual Time
Civil Twilight
Nautical Twilight
Astronomical Twilight
Moon
Length of Visible Light
Length of Day
Tomorrow will be .
, % of the Moon is Illuminated

Today's Extremes

State Highs State Lows

Community

WunderPhotos

Upload Photos

1,779,687 photos uploaded!

WunderBlogs® & News

Nearby

Air Quality

  Air Quality AQ Index Pollutant
Not available.

Snow Depth

Station Depth Elevation

Earthquake Activity

City Distance Mag. Time & Date
Minimum magnitude displayed is 2.5.

Coastal Water Temperatures

Place Temperature

Nearby Weather Stations